sensor_id;sensor_type;location;lat;lon;timestamp;P1;durP1;ratioP1;P2;durP2;ratioP2
45274;SDS011;31019;43.780;25.948;2023-03-31T00:00:06;33.88;;;30.55;;
45274;SDS011;31019;43.780;25.948;2023-03-31T00:02:36;30.02;;;27.42;;
45274;SDS011;31019;43.780;25.948;2023-03-31T00:05:05;31.98;;;29.10;;
45274;SDS011;31019;43.780;25.948;2023-03-31T00:07:33;33.30;;;30.13;;
45274;SDS011;31019;43.780;25.948;2023-03-31T00:10:02;48.53;;;45.22;;
45274;SDS011;31019;43.780;25.948;2023-03-31T00:12:30;40.55;;;37.70;;
45274;SDS011;31019;43.780;25.948;2023-03-31T00:14:58;55.08;;;49.25;;
45274;SDS011;31019;43.780;25.948;2023-03-31T00:17:25;61.30;;;48.05;;
45274;SDS011;31019;43.780;25.948;2023-03-31T00:19:52;34.67;;;31.58;;
45274;SDS011;31019;43.780;25.948;2023-03-31T00:22:24;30.88;;;28.52;;
45274;SDS011;31019;43.780;25.948;2023-03-31T00:24:51;61.83;;;44.13;;
45274;SDS011;31019;43.780;25.948;2023-03-31T00:27:18;60.50;;;45.95;;
45274;SDS011;31019;43.780;25.948;2023-03-31T00:29:45;69.80;;;49.55;;
45274;SDS011;31019;43.780;25.948;2023-03-31T00:32:16;86.10;;;50.50;;
45274;SDS011;31019;43.780;25.948;2023-03-31T00:34:44;102.13;;;53.67;;
45274;SDS011;31019;43.780;25.948;2023-03-31T00:37:11;149.55;;;69.07;;
45274;SDS011;31019;43.780;25.948;2023-03-31T00:39:40;77.55;;;46.85;;
45274;SDS011;31019;43.780;25.948;2023-03-31T00:42:08;53.00;;;39.22;;
45274;SDS011;31019;43.780;25.948;2023-03-31T00:44:37;35.75;;;32.95;;
45274;SDS011;31019;43.780;25.948;2023-03-31T00:47:26;33.05;;;30.70;;
45274;SDS011;31019;43.780;25.948;2023-03-31T00:49:55;34.80;;;32.58;;
45274;SDS011;31019;43.780;25.948;2023-03-31T00:52:24;29.25;;;27.45;;
45274;SDS011;31019;43.780;25.948;2023-03-31T00:55:00;44.95;;;39.08;;
45274;SDS011;31019;43.780;25.948;2023-03-31T00:57:31;46.15;;;38.55;;
45274;SDS011;31019;43.780;25.948;2023-03-31T01:00:04;42.38;;;37.45;;
45274;SDS011;31019;43.780;25.948;2023-03-31T01:02:39;39.53;;;36.28;;
45274;SDS011;31019;43.780;25.948;2023-03-31T01:05:15;43.20;;;39.33;;
45274;SDS011;31019;43.780;25.948;2023-03-31T01:07:44;46.55;;;42.22;;
45274;SDS011;31019;43.780;25.948;2023-03-31T01:10:15;50.08;;;46.08;;
45274;SDS011;31019;43.780;25.948;2023-03-31T01:12:43;39.83;;;37.22;;
45274;SDS011;31019;43.780;25.948;2023-03-31T01:15:13;31.92;;;29.58;;
45274;SDS011;31019;43.780;25.948;2023-03-31T01:17:41;32.45;;;30.52;;
45274;SDS011;31019;43.780;25.948;2023-03-31T01:20:12;33.40;;;31.48;;
45274;SDS011;31019;43.780;25.948;2023-03-31T01:22:57;38.08;;;35.78;;
45274;SDS011;31019;43.780;25.948;2023-03-31T01:29:07;36.15;;;33.92;;
45274;SDS011;31019;43.780;25.948;2023-03-31T01:31:51;35.42;;;33.22;;
45274;SDS011;31019;43.780;25.948;2023-03-31T01:34:58;32.28;;;30.38;;
45274;SDS011;31019;43.780;25.948;2023-03-31T01:41:05;41.80;;;39.30;;
45274;SDS011;31019;43.780;25.948;2023-03-31T01:43:40;36.58;;;34.25;;
45274;SDS011;31019;43.780;25.948;2023-03-31T01:46:14;50.53;;;46.90;;
45274;SDS011;31019;43.780;25.948;2023-03-31T01:48:51;40.22;;;37.40;;
45274;SDS011;31019;43.780;25.948;2023-03-31T01:51:27;36.88;;;34.28;;
45274;SDS011;31019;43.780;25.948;2023-03-31T01:54:00;56.17;;;50.70;;
45274;SDS011;31019;43.780;25.948;2023-03-31T01:56:36;51.17;;;47.08;;
45274;SDS011;31019;43.780;25.948;2023-03-31T01:59:07;49.55;;;45.15;;
45274;SDS011;31019;43.780;25.948;2023-03-31T02:01:38;52.00;;;48.17;;
45274;SDS011;31019;43.780;25.948;2023-03-31T02:04:09;54.60;;;51.00;;
45274;SDS011;31019;43.780;25.948;2023-03-31T02:06:42;41.80;;;38.70;;
45274;SDS011;31019;43.780;25.948;2023-03-31T02:09:18;33.78;;;31.15;;
45274;SDS011;31019;43.780;25.948;2023-03-31T02:11:49;46.58;;;43.28;;
45274;SDS011;31019;43.780;25.948;2023-03-31T02:14:21;46.22;;;42.90;;
45274;SDS011;31019;43.780;25.948;2023-03-31T02:16:53;40.25;;;37.45;;
45274;SDS011;31019;43.780;25.948;2023-03-31T02:19:24;47.28;;;44.22;;
45274;SDS011;31019;43.780;25.948;2023-03-31T02:21:53;64.50;;;60.97;;
45274;SDS011;31019;43.780;25.948;2023-03-31T02:24:20;70.82;;;67.22;;
45274;SDS011;31019;43.780;25.948;2023-03-31T02:26:52;56.42;;;53.53;;
45274;SDS011;31019;43.780;25.948;2023-03-31T02:29:26;48.03;;;45.42;;
45274;SDS011;31019;43.780;25.948;2023-03-31T02:31:55;52.55;;;49.45;;
45274;SDS011;31019;43.780;25.948;2023-03-31T02:34:26;50.58;;;47.58;;
45274;SDS011;31019;43.780;25.948;2023-03-31T02:36:53;49.22;;;45.65;;
45274;SDS011;31019;43.780;25.948;2023-03-31T02:39:22;56.10;;;51.65;;
45274;SDS011;31019;43.780;25.948;2023-03-31T02:41:52;54.55;;;50.08;;
45274;SDS011;31019;43.780;25.948;2023-03-31T02:44:19;60.10;;;56.13;;
45274;SDS011;31019;43.780;25.948;2023-03-31T02:46:46;44.17;;;40.15;;
45274;SDS011;31019;43.780;25.948;2023-03-31T02:49:14;43.88;;;40.50;;
45274;SDS011;31019;43.780;25.948;2023-03-31T02:54:39;42.13;;;39.58;;
45274;SDS011;31019;43.780;25.948;2023-03-31T02:57:34;40.28;;;38.17;;
45274;SDS011;31019;43.780;25.948;2023-03-31T03:00:20;37.40;;;35.05;;
45274;SDS011;31019;43.780;25.948;2023-03-31T03:02:57;37.03;;;34.92;;
45274;SDS011;31019;43.780;25.948;2023-03-31T03:05:37;39.70;;;37.15;;
45274;SDS011;31019;43.780;25.948;2023-03-31T03:08:13;39.22;;;36.95;;
45274;SDS011;31019;43.780;25.948;2023-03-31T03:10:51;35.25;;;32.80;;
45274;SDS011;31019;43.780;25.948;2023-03-31T03:13:29;29.02;;;27.02;;
45274;SDS011;31019;43.780;25.948;2023-03-31T03:16:04;27.60;;;25.67;;
45274;SDS011;31019;43.780;25.948;2023-03-31T03:18:37;26.02;;;24.23;;
45274;SDS011;31019;43.780;25.948;2023-03-31T03:21:05;26.67;;;24.88;;
45274;SDS011;31019;43.780;25.948;2023-03-31T03:23:31;26.67;;;24.60;;
45274;SDS011;31019;43.780;25.948;2023-03-31T03:25:58;25.63;;;23.55;;
45274;SDS011;31019;43.780;25.948;2023-03-31T03:28:25;29.13;;;27.02;;
45274;SDS011;31019;43.780;25.948;2023-03-31T03:30:53;27.88;;;25.75;;
45274;SDS011;31019;43.780;25.948;2023-03-31T03:33:21;31.42;;;28.67;;
45274;SDS011;31019;43.780;25.948;2023-03-31T03:35:49;31.27;;;28.77;;
45274;SDS011;31019;43.780;25.948;2023-03-31T03:38:16;31.15;;;28.58;;
45274;SDS011;31019;43.780;25.948;2023-03-31T03:40:42;36.72;;;33.40;;
45274;SDS011;31019;43.780;25.948;2023-03-31T03:43:09;42.30;;;38.88;;
45274;SDS011;31019;43.780;25.948;2023-03-31T03:45:36;38.63;;;35.13;;
45274;SDS011;31019;43.780;25.948;2023-03-31T03:48:04;39.33;;;35.60;;
45274;SDS011;31019;43.780;25.948;2023-03-31T03:50:34;36.28;;;33.22;;
45274;SDS011;31019;43.780;25.948;2023-03-31T03:53:01;40.20;;;36.85;;
45274;SDS011;31019;43.780;25.948;2023-03-31T03:55:28;35.92;;;33.22;;
45274;SDS011;31019;43.780;25.948;2023-03-31T03:57:55;34.58;;;32.13;;
45274;SDS011;31019;43.780;25.948;2023-03-31T04:00:21;31.60;;;28.90;;
45274;SDS011;31019;43.780;25.948;2023-03-31T04:02:48;33.95;;;31.17;;
45274;SDS011;31019;43.780;25.948;2023-03-31T04:05:16;35.78;;;32.83;;
45274;SDS011;31019;43.780;25.948;2023-03-31T04:07:43;33.28;;;30.48;;
45274;SDS011;31019;43.780;25.948;2023-03-31T04:10:10;34.63;;;31.50;;
45274;SDS011;31019;43.780;25.948;2023-03-31T04:12:37;30.17;;;27.38;;
45274;SDS011;31019;43.780;25.948;2023-03-31T04:15:04;31.08;;;27.92;;
45274;SDS011;31019;43.780;25.948;2023-03-31T04:17:31;33.28;;;29.98;;
45274;SDS011;31019;43.780;25.948;2023-03-31T04:19:58;41.33;;;30.15;;
45274;SDS011;31019;43.780;25.948;2023-03-31T04:22:31;41.25;;;37.80;;
45274;SDS011;31019;43.780;25.948;2023-03-31T04:25:00;43.78;;;39.58;;
45274;SDS011;31019;43.780;25.948;2023-03-31T04:27:27;39.97;;;36.25;;
45274;SDS011;31019;43.780;25.948;2023-03-31T04:29:55;42.63;;;38.60;;
45274;SDS011;31019;43.780;25.948;2023-03-31T04:32:22;43.85;;;39.38;;
45274;SDS011;31019;43.780;25.948;2023-03-31T04:34:49;53.78;;;48.17;;
45274;SDS011;31019;43.780;25.948;2023-03-31T04:37:16;69.22;;;58.05;;
45274;SDS011;31019;43.780;25.948;2023-03-31T04:39:44;66.07;;;55.90;;
45274;SDS011;31019;43.780;25.948;2023-03-31T04:42:14;62.93;;;56.13;;
45274;SDS011;31019;43.780;25.948;2023-03-31T04:44:41;64.50;;;57.55;;
45274;SDS011;31019;43.780;25.948;2023-03-31T04:47:08;63.25;;;56.45;;
45274;SDS011;31019;43.780;25.948;2023-03-31T04:49:34;61.53;;;55.92;;
45274;SDS011;31019;43.780;25.948;2023-03-31T04:52:01;57.75;;;52.25;;
45274;SDS011;31019;43.780;25.948;2023-03-31T04:54:28;57.58;;;52.28;;
45274;SDS011;31019;43.780;25.948;2023-03-31T04:56:56;54.42;;;49.42;;
45274;SDS011;31019;43.780;25.948;2023-03-31T04:59:23;50.35;;;45.17;;
45274;SDS011;31019;43.780;25.948;2023-03-31T05:01:49;50.63;;;45.72;;
45274;SDS011;31019;43.780;25.948;2023-03-31T05:04:16;56.05;;;50.38;;
45274;SDS011;31019;43.780;25.948;2023-03-31T05:06:43;59.33;;;53.85;;
45274;SDS011;31019;43.780;25.948;2023-03-31T05:09:09;55.75;;;50.75;;
45274;SDS011;31019;43.780;25.948;2023-03-31T05:11:36;50.75;;;46.63;;
45274;SDS011;31019;43.780;25.948;2023-03-31T05:14:04;47.45;;;43.50;;
45274;SDS011;31019;43.780;25.948;2023-03-31T05:16:31;45.97;;;42.03;;
45274;SDS011;31019;43.780;25.948;2023-03-31T05:18:58;47.60;;;43.20;;
45274;SDS011;31019;43.780;25.948;2023-03-31T05:21:25;47.22;;;42.95;;
45274;SDS011;31019;43.780;25.948;2023-03-31T05:23:54;52.63;;;47.40;;
45274;SDS011;31019;43.780;25.948;2023-03-31T05:26:22;59.60;;;53.85;;
45274;SDS011;31019;43.780;25.948;2023-03-31T05:28:49;58.40;;;52.90;;
45274;SDS011;31019;43.780;25.948;2023-03-31T05:31:17;59.88;;;54.15;;
45274;SDS011;31019;43.780;25.948;2023-03-31T05:33:44;63.75;;;57.55;;
45274;SDS011;31019;43.780;25.948;2023-03-31T05:36:12;75.80;;;68.80;;
45274;SDS011;31019;43.780;25.948;2023-03-31T05:38:40;79.68;;;72.70;;
45274;SDS011;31019;43.780;25.948;2023-03-31T05:41:07;67.55;;;61.55;;
45274;SDS011;31019;43.780;25.948;2023-03-31T05:43:36;66.38;;;59.70;;
45274;SDS011;31019;43.780;25.948;2023-03-31T05:46:03;65.22;;;58.67;;
45274;SDS011;31019;43.780;25.948;2023-03-31T05:48:31;65.05;;;57.95;;
45274;SDS011;31019;43.780;25.948;2023-03-31T05:51:00;63.42;;;56.92;;
45274;SDS011;31019;43.780;25.948;2023-03-31T05:53:27;66.10;;;58.80;;
45274;SDS011;31019;43.780;25.948;2023-03-31T05:55:57;74.65;;;66.50;;
45274;SDS011;31019;43.780;25.948;2023-03-31T05:58:26;80.30;;;72.82;;
45274;SDS011;31019;43.780;25.948;2023-03-31T06:00:59;89.28;;;80.32;;
45274;SDS011;31019;43.780;25.948;2023-03-31T06:03:29;96.43;;;86.65;;
45274;SDS011;31019;43.780;25.948;2023-03-31T06:05:58;93.25;;;84.00;;
45274;SDS011;31019;43.780;25.948;2023-03-31T06:08:26;102.63;;;92.75;;
45274;SDS011;31019;43.780;25.948;2023-03-31T06:10:52;109.15;;;98.13;;
45274;SDS011;31019;43.780;25.948;2023-03-31T06:13:19;113.72;;;101.50;;
45274;SDS011;31019;43.780;25.948;2023-03-31T06:15:51;101.90;;;92.50;;
45274;SDS011;31019;43.780;25.948;2023-03-31T06:18:19;109.65;;;98.93;;
45274;SDS011;31019;43.780;25.948;2023-03-31T06:20:47;109.47;;;99.20;;
45274;SDS011;31019;43.780;25.948;2023-03-31T06:23:14;117.43;;;106.72;;
45274;SDS011;31019;43.780;25.948;2023-03-31T06:25:40;123.10;;;112.20;;
45274;SDS011;31019;43.780;25.948;2023-03-31T06:28:07;116.57;;;107.20;;
45274;SDS011;31019;43.780;25.948;2023-03-31T06:30:34;110.97;;;101.68;;
45274;SDS011;31019;43.780;25.948;2023-03-31T06:33:01;108.10;;;98.95;;
45274;SDS011;31019;43.780;25.948;2023-03-31T06:35:28;111.70;;;101.78;;
45274;SDS011;31019;43.780;25.948;2023-03-31T06:37:56;108.63;;;99.15;;
45274;SDS011;31019;43.780;25.948;2023-03-31T06:40:23;115.88;;;105.63;;
45274;SDS011;31019;43.780;25.948;2023-03-31T06:42:50;125.18;;;112.95;;
45274;SDS011;31019;43.780;25.948;2023-03-31T06:45:16;122.78;;;111.35;;
45274;SDS011;31019;43.780;25.948;2023-03-31T06:47:43;117.10;;;107.22;;
45274;SDS011;31019;43.780;25.948;2023-03-31T06:50:10;139.07;;;128.07;;
45274;SDS011;31019;43.780;25.948;2023-03-31T06:52:37;121.80;;;112.10;;
45274;SDS011;31019;43.780;25.948;2023-03-31T06:55:06;127.88;;;116.32;;
45274;SDS011;31019;43.780;25.948;2023-03-31T06:57:34;122.68;;;111.78;;
45274;SDS011;31019;43.780;25.948;2023-03-31T07:00:01;119.03;;;109.13;;
45274;SDS011;31019;43.780;25.948;2023-03-31T07:02:28;127.88;;;117.82;;
45274;SDS011;31019;43.780;25.948;2023-03-31T07:04:55;123.78;;;113.57;;
45274;SDS011;31019;43.780;25.948;2023-03-31T07:07:22;129.20;;;118.57;;
45274;SDS011;31019;43.780;25.948;2023-03-31T07:09:48;135.73;;;124.82;;
45274;SDS011;31019;43.780;25.948;2023-03-31T07:12:16;122.80;;;112.60;;
45274;SDS011;31019;43.780;25.948;2023-03-31T07:14:44;133.30;;;122.38;;
45274;SDS011;31019;43.780;25.948;2023-03-31T07:17:11;126.70;;;115.90;;
45274;SDS011;31019;43.780;25.948;2023-03-31T07:19:38;127.32;;;116.47;;
45274;SDS011;31019;43.780;25.948;2023-03-31T07:22:06;135.20;;;123.47;;
45274;SDS011;31019;43.780;25.948;2023-03-31T07:24:33;131.68;;;120.95;;
45274;SDS011;31019;43.780;25.948;2023-03-31T07:26:59;134.10;;;123.25;;
45274;SDS011;31019;43.780;25.948;2023-03-31T07:29:28;125.25;;;115.03;;
45274;SDS011;31019;43.780;25.948;2023-03-31T07:31:55;127.93;;;117.50;;
45274;SDS011;31019;43.780;25.948;2023-03-31T07:34:21;136.65;;;125.72;;
45274;SDS011;31019;43.780;25.948;2023-03-31T07:36:48;128.25;;;117.97;;
45274;SDS011;31019;43.780;25.948;2023-03-31T07:39:15;124.60;;;114.43;;
45274;SDS011;31019;43.780;25.948;2023-03-31T07:41:42;140.25;;;129.02;;
45274;SDS011;31019;43.780;25.948;2023-03-31T07:44:08;135.77;;;124.75;;
45274;SDS011;31019;43.780;25.948;2023-03-31T07:46:40;131.55;;;120.95;;
45274;SDS011;31019;43.780;25.948;2023-03-31T07:49:07;131.95;;;121.15;;
45274;SDS011;31019;43.780;25.948;2023-03-31T07:51:34;138.52;;;127.15;;
45274;SDS011;31019;43.780;25.948;2023-03-31T07:54:01;141.98;;;129.55;;
45274;SDS011;31019;43.780;25.948;2023-03-31T07:56:28;149.05;;;136.23;;
45274;SDS011;31019;43.780;25.948;2023-03-31T07:58:54;144.70;;;132.20;;
45274;SDS011;31019;43.780;25.948;2023-03-31T08:01:21;480.27;;;269.65;;
45274;SDS011;31019;43.780;25.948;2023-03-31T08:03:51;179.25;;;164.10;;
45274;SDS011;31019;43.780;25.948;2023-03-31T08:06:18;185.77;;;170.85;;
45274;SDS011;31019;43.780;25.948;2023-03-31T08:08:46;181.23;;;165.85;;
45274;SDS011;31019;43.780;25.948;2023-03-31T08:11:13;164.90;;;150.95;;
45274;SDS011;31019;43.780;25.948;2023-03-31T08:13:40;281.95;;;250.75;;
45274;SDS011;31019;43.780;25.948;2023-03-31T08:16:07;208.68;;;193.10;;
45274;SDS011;31019;43.780;25.948;2023-03-31T08:18:34;204.18;;;188.55;;
45274;SDS011;31019;43.780;25.948;2023-03-31T08:21:02;208.55;;;193.15;;
45274;SDS011;31019;43.780;25.948;2023-03-31T08:23:29;205.90;;;190.23;;
45274;SDS011;31019;43.780;25.948;2023-03-31T08:26:05;211.73;;;195.52;;
45274;SDS011;31019;43.780;25.948;2023-03-31T08:28:33;232.88;;;215.57;;
45274;SDS011;31019;43.780;25.948;2023-03-31T08:31:01;215.40;;;199.90;;
45274;SDS011;31019;43.780;25.948;2023-03-31T08:33:30;200.25;;;185.95;;
45274;SDS011;31019;43.780;25.948;2023-03-31T08:36:00;183.48;;;170.23;;
45274;SDS011;31019;43.780;25.948;2023-03-31T08:38:29;177.68;;;164.95;;
45274;SDS011;31019;43.780;25.948;2023-03-31T08:40:59;182.35;;;169.82;;
45274;SDS011;31019;43.780;25.948;2023-03-31T08:43:28;182.18;;;169.07;;
45274;SDS011;31019;43.780;25.948;2023-03-31T08:45:59;185.80;;;172.88;;
45274;SDS011;31019;43.780;25.948;2023-03-31T08:48:28;215.15;;;199.95;;
45274;SDS011;31019;43.780;25.948;2023-03-31T08:50:59;186.40;;;173.27;;
45274;SDS011;31019;43.780;25.948;2023-03-31T08:53:30;178.80;;;166.63;;
45274;SDS011;31019;43.780;25.948;2023-03-31T08:56:00;172.70;;;160.70;;
45274;SDS011;31019;43.780;25.948;2023-03-31T08:58:34;145.70;;;135.97;;
45274;SDS011;31019;43.780;25.948;2023-03-31T09:01:06;145.88;;;136.18;;
45274;SDS011;31019;43.780;25.948;2023-03-31T09:03:42;150.25;;;140.43;;
45274;SDS011;31019;43.780;25.948;2023-03-31T09:06:19;114.70;;;106.70;;
45274;SDS011;31019;43.780;25.948;2023-03-31T09:08:52;61.28;;;56.47;;
45274;SDS011;31019;43.780;25.948;2023-03-31T09:11:25;83.85;;;77.85;;
45274;SDS011;31019;43.780;25.948;2023-03-31T09:13:59;73.93;;;68.38;;
45274;SDS011;31019;43.780;25.948;2023-03-31T09:16:53;70.32;;;64.63;;
45274;SDS011;31019;43.780;25.948;2023-03-31T09:19:36;77.75;;;71.85;;
45274;SDS011;31019;43.780;25.948;2023-03-31T09:22:08;84.22;;;78.53;;
45274;SDS011;31019;43.780;25.948;2023-03-31T09:24:42;91.32;;;85.05;;
45274;SDS011;31019;43.780;25.948;2023-03-31T09:27:14;87.60;;;81.40;;
45274;SDS011;31019;43.780;25.948;2023-03-31T09:29:42;58.90;;;54.30;;
45274;SDS011;31019;43.780;25.948;2023-03-31T09:32:14;63.08;;;57.97;;
45274;SDS011;31019;43.780;25.948;2023-03-31T09:34:42;59.60;;;55.03;;
45274;SDS011;31019;43.780;25.948;2023-03-31T09:37:13;47.72;;;43.97;;
45274;SDS011;31019;43.780;25.948;2023-03-31T09:39:39;47.42;;;44.08;;
45274;SDS011;31019;43.780;25.948;2023-03-31T09:42:08;43.58;;;40.30;;
45274;SDS011;31019;43.780;25.948;2023-03-31T09:44:37;33.55;;;30.95;;
45274;SDS011;31019;43.780;25.948;2023-03-31T09:47:08;31.45;;;28.92;;
45274;SDS011;31019;43.780;25.948;2023-03-31T09:49:40;43.72;;;40.42;;
45274;SDS011;31019;43.780;25.948;2023-03-31T09:52:13;37.72;;;35.03;;
45274;SDS011;31019;43.780;25.948;2023-03-31T09:54:48;35.30;;;32.60;;
45274;SDS011;31019;43.780;25.948;2023-03-31T09:57:22;41.35;;;38.05;;
45274;SDS011;31019;43.780;25.948;2023-03-31T09:59:51;40.65;;;37.65;;
45274;SDS011;31019;43.780;25.948;2023-03-31T10:02:33;40.00;;;36.78;;
45274;SDS011;31019;43.780;25.948;2023-03-31T10:05:02;39.55;;;36.67;;
45274;SDS011;31019;43.780;25.948;2023-03-31T10:07:32;32.50;;;30.05;;
45274;SDS011;31019;43.780;25.948;2023-03-31T10:10:00;38.35;;;35.35;;
45274;SDS011;31019;43.780;25.948;2023-03-31T10:12:28;38.38;;;35.15;;
45274;SDS011;31019;43.780;25.948;2023-03-31T10:15:02;48.72;;;44.92;;
45274;SDS011;31019;43.780;25.948;2023-03-31T10:17:43;38.97;;;36.08;;
45274;SDS011;31019;43.780;25.948;2023-03-31T10:20:26;40.05;;;37.47;;
45274;SDS011;31019;43.780;25.948;2023-03-31T10:23:02;46.17;;;43.20;;
45274;SDS011;31019;43.780;25.948;2023-03-31T10:25:31;48.45;;;45.10;;
45274;SDS011;31019;43.780;25.948;2023-03-31T10:27:59;43.70;;;40.85;;
45274;SDS011;31019;43.780;25.948;2023-03-31T10:30:29;38.72;;;36.50;;
45274;SDS011;31019;43.780;25.948;2023-03-31T10:33:04;45.90;;;42.08;;
45274;SDS011;31019;43.780;25.948;2023-03-31T10:35:32;29.27;;;27.02;;
45274;SDS011;31019;43.780;25.948;2023-03-31T10:38:03;41.80;;;38.90;;
45274;SDS011;31019;43.780;25.948;2023-03-31T10:40:32;48.92;;;45.10;;
45274;SDS011;31019;43.780;25.948;2023-03-31T10:43:03;42.17;;;38.88;;
45274;SDS011;31019;43.780;25.948;2023-03-31T10:45:35;35.13;;;32.53;;
45274;SDS011;31019;43.780;25.948;2023-03-31T10:48:03;43.80;;;40.30;;
45274;SDS011;31019;43.780;25.948;2023-03-31T10:50:32;34.97;;;32.40;;
45274;SDS011;31019;43.780;25.948;2023-03-31T10:53:03;34.65;;;32.28;;
45274;SDS011;31019;43.780;25.948;2023-03-31T10:55:35;40.45;;;37.28;;
45274;SDS011;31019;43.780;25.948;2023-03-31T10:58:15;48.53;;;44.80;;
45274;SDS011;31019;43.780;25.948;2023-03-31T11:00:56;43.33;;;39.85;;
45274;SDS011;31019;43.780;25.948;2023-03-31T11:06:32;44.78;;;41.47;;
45274;SDS011;31019;43.780;25.948;2023-03-31T11:09:15;46.58;;;43.10;;
45274;SDS011;31019;43.780;25.948;2023-03-31T11:11:56;42.00;;;39.20;;
45274;SDS011;31019;43.780;25.948;2023-03-31T11:14:37;36.03;;;33.53;;
45274;SDS011;31019;43.780;25.948;2023-03-31T11:17:15;29.83;;;27.58;;
45274;SDS011;31019;43.780;25.948;2023-03-31T11:19:52;38.80;;;35.83;;
45274;SDS011;31019;43.780;25.948;2023-03-31T11:22:28;26.35;;;24.33;;
45274;SDS011;31019;43.780;25.948;2023-03-31T11:25:06;44.25;;;40.88;;
45274;SDS011;31019;43.780;25.948;2023-03-31T11:30:49;44.50;;;41.15;;
45274;SDS011;31019;43.780;25.948;2023-03-31T11:36:22;29.33;;;27.42;;
45274;SDS011;31019;43.780;25.948;2023-03-31T11:39:14;30.67;;;28.55;;
45274;SDS011;31019;43.780;25.948;2023-03-31T11:41:53;27.85;;;25.90;;
45274;SDS011;31019;43.780;25.948;2023-03-31T11:44:26;47.40;;;44.30;;
45274;SDS011;31019;43.780;25.948;2023-03-31T11:46:57;24.88;;;23.30;;
45274;SDS011;31019;43.780;25.948;2023-03-31T11:49:27;28.05;;;26.35;;
45274;SDS011;31019;43.780;25.948;2023-03-31T11:51:56;30.23;;;28.42;;
45274;SDS011;31019;43.780;25.948;2023-03-31T11:54:28;33.00;;;30.88;;
45274;SDS011;31019;43.780;25.948;2023-03-31T11:57:00;25.17;;;23.47;;
45274;SDS011;31019;43.780;25.948;2023-03-31T11:59:29;25.33;;;23.50;;
45274;SDS011;31019;43.780;25.948;2023-03-31T12:02:00;22.67;;;21.27;;
45274;SDS011;31019;43.780;25.948;2023-03-31T12:04:36;26.58;;;24.95;;
45274;SDS011;31019;43.780;25.948;2023-03-31T12:07:07;31.42;;;28.75;;
45274;SDS011;31019;43.780;25.948;2023-03-31T12:09:47;28.73;;;26.92;;
45274;SDS011;31019;43.780;25.948;2023-03-31T12:12:21;25.83;;;24.23;;
45274;SDS011;31019;43.780;25.948;2023-03-31T12:14:53;36.17;;;33.53;;
45274;SDS011;31019;43.780;25.948;2023-03-31T12:17:34;30.25;;;28.20;;
45274;SDS011;31019;43.780;25.948;2023-03-31T12:20:02;23.25;;;21.85;;
45274;SDS011;31019;43.780;25.948;2023-03-31T12:25:03;25.08;;;23.63;;
45274;SDS011;31019;43.780;25.948;2023-03-31T12:27:33;24.10;;;22.30;;
45274;SDS011;31019;43.780;25.948;2023-03-31T12:30:06;21.13;;;19.52;;
45274;SDS011;31019;43.780;25.948;2023-03-31T12:32:39;23.63;;;22.08;;
45274;SDS011;31019;43.780;25.948;2023-03-31T12:35:12;23.35;;;21.75;;
45274;SDS011;31019;43.780;25.948;2023-03-31T12:37:58;24.40;;;22.80;;
45274;SDS011;31019;43.780;25.948;2023-03-31T12:40:49;22.58;;;21.13;;
45274;SDS011;31019;43.780;25.948;2023-03-31T12:43:29;23.17;;;21.48;;
45274;SDS011;31019;43.780;25.948;2023-03-31T12:46:26;24.02;;;22.63;;
45274;SDS011;31019;43.780;25.948;2023-03-31T12:49:22;23.40;;;21.60;;
45274;SDS011;31019;43.780;25.948;2023-03-31T12:52:12;26.48;;;24.77;;
45274;SDS011;31019;43.780;25.948;2023-03-31T12:54:55;31.38;;;29.08;;
45274;SDS011;31019;43.780;25.948;2023-03-31T12:57:33;33.05;;;30.63;;
45274;SDS011;31019;43.780;25.948;2023-03-31T13:05:54;29.27;;;27.38;;
45274;SDS011;31019;43.780;25.948;2023-03-31T13:11:19;21.25;;;19.65;;
45274;SDS011;31019;43.780;25.948;2023-03-31T13:13:54;23.58;;;21.48;;
45274;SDS011;31019;43.780;25.948;2023-03-31T13:16:27;26.00;;;24.10;;
45274;SDS011;31019;43.780;25.948;2023-03-31T13:18:54;28.77;;;26.80;;
45274;SDS011;31019;43.780;25.948;2023-03-31T13:21:22;25.25;;;23.30;;
45274;SDS011;31019;43.780;25.948;2023-03-31T13:23:49;23.65;;;22.05;;
45274;SDS011;31019;43.780;25.948;2023-03-31T13:29:09;24.83;;;23.02;;
45274;SDS011;31019;43.780;25.948;2023-03-31T13:37:24;224.90;;;45.20;;
45274;SDS011;31019;43.780;25.948;2023-03-31T13:40:07;165.48;;;38.10;;
45274;SDS011;31019;43.780;25.948;2023-03-31T13:42:57;286.40;;;53.85;;
45274;SDS011;31019;43.780;25.948;2023-03-31T13:45:46;74.22;;;29.60;;
45274;SDS011;31019;43.780;25.948;2023-03-31T13:48:27;22.23;;;20.60;;
45274;SDS011;31019;43.780;25.948;2023-03-31T13:51:09;104.85;;;30.73;;
45274;SDS011;31019;43.780;25.948;2023-03-31T13:53:51;53.25;;;24.63;;
45274;SDS011;31019;43.780;25.948;2023-03-31T13:56:47;142.25;;;40.33;;
45274;SDS011;31019;43.780;25.948;2023-03-31T13:59:27;29.30;;;26.70;;
45274;SDS011;31019;43.780;25.948;2023-03-31T14:05:23;107.63;;;35.90;;
45274;SDS011;31019;43.780;25.948;2023-03-31T14:07:56;28.50;;;25.02;;
45274;SDS011;31019;43.780;25.948;2023-03-31T14:10:28;27.95;;;25.67;;
45274;SDS011;31019;43.780;25.948;2023-03-31T14:13:04;107.43;;;33.08;;
45274;SDS011;31019;43.780;25.948;2023-03-31T14:15:35;141.63;;;41.58;;
45274;SDS011;31019;43.780;25.948;2023-03-31T14:18:04;58.33;;;31.05;;
45274;SDS011;31019;43.780;25.948;2023-03-31T14:20:49;24.60;;;23.00;;
45274;SDS011;31019;43.780;25.948;2023-03-31T14:23:40;23.85;;;21.95;;
45274;SDS011;31019;43.780;25.948;2023-03-31T14:26:17;25.83;;;22.98;;
45274;SDS011;31019;43.780;25.948;2023-03-31T14:28:57;25.45;;;23.23;;
45274;SDS011;31019;43.780;25.948;2023-03-31T14:31:35;24.95;;;23.42;;
45274;SDS011;31019;43.780;25.948;2023-03-31T14:34:25;26.83;;;23.45;;
45274;SDS011;31019;43.780;25.948;2023-03-31T14:39:40;21.20;;;19.40;;
45274;SDS011;31019;43.780;25.948;2023-03-31T14:42:10;22.65;;;20.77;;
45274;SDS011;31019;43.780;25.948;2023-03-31T14:44:39;22.77;;;20.88;;
45274;SDS011;31019;43.780;25.948;2023-03-31T14:47:11;22.60;;;20.15;;
45274;SDS011;31019;43.780;25.948;2023-03-31T14:49:40;22.27;;;20.10;;
45274;SDS011;31019;43.780;25.948;2023-03-31T14:52:13;24.30;;;22.35;;
45274;SDS011;31019;43.780;25.948;2023-03-31T14:54:43;22.25;;;20.52;;
45274;SDS011;31019;43.780;25.948;2023-03-31T14:57:12;20.95;;;19.45;;
45274;SDS011;31019;43.780;25.948;2023-03-31T14:59:43;20.83;;;19.13;;
45274;SDS011;31019;43.780;25.948;2023-03-31T15:02:12;21.67;;;19.70;;
45274;SDS011;31019;43.780;25.948;2023-03-31T15:04:43;21.05;;;19.55;;
45274;SDS011;31019;43.780;25.948;2023-03-31T15:07:14;19.33;;;17.92;;
45274;SDS011;31019;43.780;25.948;2023-03-31T15:09:43;23.02;;;21.25;;
45274;SDS011;31019;43.780;25.948;2023-03-31T15:12:14;21.00;;;19.02;;